createdAt,value
2018-11-02T00:00:41.419Z,10.30
2018-11-02T00:02:34.828Z,10.28
2018-11-02T00:03:34.794Z,10.34
2018-11-02T00:05:29.734Z,10.42
2018-11-02T00:06:28.272Z,10.34
2018-11-02T00:08:21.893Z,10.39
2018-11-02T00:09:21.510Z,10.27
2018-11-02T00:11:14.893Z,10.26
2018-11-02T00:12:14.909Z,10.26
2018-11-02T00:14:08.231Z,10.20
2018-11-02T00:15:08.165Z,10.18
2018-11-02T00:17:01.566Z,10.18
2018-11-02T00:18:01.519Z,10.20
2018-11-02T00:19:55.228Z,10.28
2018-11-02T00:20:54.884Z,10.30
2018-11-02T00:22:49.436Z,10.26
2018-11-02T00:23:47.753Z,10.30
2018-11-02T00:25:41.525Z,10.21
2018-11-02T00:26:41.087Z,10.24
2018-11-02T00:28:37.307Z,10.39
2018-11-02T00:29:35.818Z,10.39
2018-11-02T00:31:29.703Z,10.34
2018-11-02T00:32:29.664Z,10.39
2018-11-02T00:34:23.627Z,10.36
2018-11-02T00:35:23.015Z,10.41
2018-11-02T00:37:16.189Z,10.39
2018-11-02T00:38:15.916Z,10.41
2018-11-02T00:40:08.788Z,10.46
2018-11-02T00:41:09.352Z,10.49
2018-11-02T00:43:02.299Z,10.45
2018-11-02T00:44:02.833Z,10.41
2018-11-02T00:45:56.357Z,10.42
2018-11-02T00:46:55.368Z,10.41
2018-11-02T00:48:49.055Z,10.45
2018-11-02T00:49:48.705Z,10.35
2018-11-02T00:51:43.646Z,10.36
2018-11-02T00:52:42.432Z,10.39
2018-11-02T00:54:35.701Z,10.36
2018-11-02T00:55:35.427Z,10.45
2018-11-02T00:57:29.227Z,10.30
2018-11-02T00:58:29.218Z,10.36
2018-11-02T01:00:22.564Z,10.28
2018-11-02T01:01:22.716Z,10.27
2018-11-02T01:03:16.038Z,10.27
2018-11-02T01:04:15.507Z,10.21
2018-11-02T01:06:09.817Z,10.23
2018-11-02T01:07:09.417Z,10.12
2018-11-02T01:09:02.229Z,10.17
2018-11-02T01:10:02.202Z,10.21
2018-11-02T01:11:55.934Z,10.16
2018-11-02T01:12:55.546Z,10.06
2018-11-02T01:14:50.592Z,10.08
2018-11-02T01:15:48.911Z,10.06
2018-11-02T01:17:42.631Z,10.05
2018-11-02T01:18:42.192Z,9.98
2018-11-02T01:20:35.746Z,10.05
2018-11-02T01:21:36.100Z,10.09
2018-11-02T01:23:28.526Z,10.06
2018-11-02T01:24:28.905Z,10.06
2018-11-02T01:26:22.323Z,10.12
2018-11-02T01:27:22.304Z,10.10
2018-11-02T01:29:18.149Z,10.03
2018-11-02T01:30:18.066Z,10.10
2018-11-02T01:32:11.600Z,10.20
2018-11-02T01:33:10.721Z,10.17
2018-11-02T01:35:04.228Z,10.18
2018-11-02T01:36:04.128Z,10.14
2018-11-02T01:37:57.881Z,10.21
2018-11-02T01:38:57.469Z,10.23
2018-11-02T01:40:51.837Z,10.28
2018-11-02T01:41:50.909Z,10.26
2018-11-02T01:43:44.491Z,10.38
2018-11-02T01:44:44.157Z,10.35
2018-11-02T01:46:37.932Z,10.38
2018-11-02T01:47:37.535Z,10.46
2018-11-02T01:49:31.017Z,10.48
2018-11-02T01:50:30.930Z,10.49
2018-11-02T01:52:24.318Z,10.52
2018-11-02T01:53:24.503Z,10.55
2018-11-02T01:55:18.006Z,10.54
2018-11-02T01:56:17.569Z,10.57
2018-11-02T01:58:10.997Z,10.64
2018-11-02T01:59:10.723Z,10.62
2018-11-02T02:01:04.161Z,10.75
2018-11-02T02:02:04.081Z,10.58
2018-11-02T02:03:57.909Z,10.62
2018-11-02T02:04:57.424Z,10.72
2018-11-02T02:06:51.139Z,10.75
2018-11-02T02:07:50.783Z,10.58
2018-11-02T02:09:44.012Z,10.65
2018-11-02T02:10:43.650Z,10.70
2018-11-02T02:12:37.854Z,10.70
2018-11-02T02:13:37.004Z,10.73
2018-11-02T02:15:30.748Z,10.68
2018-11-02T02:16:30.389Z,10.76
2018-11-02T02:18:24.123Z,10.78
2018-11-02T02:19:23.717Z,10.72
2018-11-02T02:21:16.843Z,10.67
2018-11-02T02:22:16.585Z,10.65
2018-11-02T02:24:10.318Z,10.68
2018-11-02T02:25:10.288Z,10.72
2018-11-02T02:27:04.765Z,10.72
2018-11-02T02:28:03.744Z,10.76
2018-11-02T02:29:57.178Z,10.82
2018-11-02T02:30:56.742Z,10.76
2018-11-02T02:32:50.490Z,10.87
2018-11-02T02:33:50.040Z,10.90
2018-11-02T02:35:43.392Z,10.87
2018-11-02T02:36:42.893Z,10.93
2018-11-02T02:38:36.180Z,10.90
2018-11-02T02:39:36.104Z,10.83
2018-11-02T02:41:29.620Z,10.87
2018-11-02T02:42:29.154Z,10.93
2018-11-02T02:44:22.378Z,10.87
2018-11-02T02:45:22.024Z,10.82
2018-11-02T02:47:15.692Z,10.87
2018-11-02T02:48:16.312Z,10.90
2018-11-02T02:50:09.073Z,10.85
2018-11-02T02:51:08.988Z,10.86
2018-11-02T02:53:03.032Z,10.85
2018-11-02T02:54:02.546Z,10.79
2018-11-02T02:55:55.891Z,10.80
2018-11-02T02:56:55.460Z,10.73
2018-11-02T02:58:49.182Z,10.68
2018-11-02T02:59:48.815Z,10.57
2018-11-02T03:01:42.631Z,10.67
2018-11-02T03:02:42.180Z,10.68
2018-11-02T03:04:35.851Z,10.67
2018-11-02T03:05:35.915Z,10.70
2018-11-02T03:07:29.301Z,10.57
2018-11-02T03:08:29.268Z,10.64
2018-11-02T03:10:21.927Z,10.55
2018-11-02T03:11:22.265Z,10.39
2018-11-02T03:13:15.163Z,10.41
2018-11-02T03:14:16.551Z,10.43
2018-11-02T03:16:08.471Z,10.39
2018-11-02T03:17:08.120Z,10.28
2018-11-02T03:19:01.875Z,10.30
2018-11-02T03:20:01.916Z,10.27
2018-11-02T03:21:55.322Z,10.14
2018-11-02T03:22:55.233Z,10.20
2018-11-02T03:24:49.176Z,10.02
2018-11-02T03:25:48.275Z,10.01
2018-11-02T03:27:44.725Z,9.91
2018-11-02T03:28:44.065Z,9.87
2018-11-02T03:30:38.315Z,9.85
2018-11-02T03:31:37.427Z,9.84
2018-11-02T03:33:31.167Z,9.72
2018-11-02T03:34:30.799Z,9.75
2018-11-02T03:36:24.100Z,9.72
2018-11-02T03:37:24.065Z,9.72
2018-11-02T03:39:17.411Z,9.75
2018-11-02T03:40:16.965Z,9.57
2018-11-02T03:42:10.060Z,9.51
2018-11-02T03:43:09.880Z,9.51
2018-11-02T03:45:03.593Z,9.51
2018-11-02T03:46:03.255Z,9.48
2018-11-02T03:47:57.037Z,9.48
2018-11-02T03:48:56.628Z,9.36
2018-11-02T03:50:49.992Z,9.41
2018-11-02T03:51:50.500Z,9.32
2018-11-02T03:53:43.738Z,9.27
2018-11-02T03:54:43.278Z,9.30
2018-11-02T03:56:37.203Z,9.14
2018-11-02T03:57:36.650Z,9.14
2018-11-02T03:59:29.921Z,9.16
2018-11-02T04:00:29.904Z,9.12
2018-11-02T04:02:24.299Z,9.23
2018-11-02T04:03:24.225Z,9.09
2018-11-02T04:05:17.259Z,9.06
2018-11-02T04:06:17.228Z,9.09
2018-11-02T04:08:11.313Z,9.09
2018-11-02T04:09:10.584Z,8.96
2018-11-02T04:11:04.327Z,8.99
2018-11-02T04:12:03.909Z,9.03
2018-11-02T04:13:57.761Z,8.89
2018-11-02T04:14:57.621Z,8.81
2018-11-02T04:16:51.642Z,8.92
2018-11-02T04:17:51.201Z,8.86
2018-11-02T04:19:44.454Z,8.89
2018-11-02T04:20:44.306Z,8.80
2018-11-02T04:22:37.726Z,8.89
2018-11-02T04:23:36.957Z,8.83
2018-11-02T04:25:32.252Z,8.75
2018-11-02T04:26:30.262Z,8.75
2018-11-02T04:28:24.017Z,8.77
2018-11-02T04:29:24.015Z,8.68
2018-11-02T04:31:17.430Z,8.68
2018-11-02T04:32:16.998Z,8.68
2018-11-02T04:34:10.308Z,8.52
2018-11-02T04:35:09.885Z,8.62
2018-11-02T04:37:03.667Z,8.55
2018-11-02T04:38:03.152Z,8.55
2018-11-02T04:39:56.939Z,8.55
2018-11-02T04:40:56.961Z,8.42
2018-11-02T04:42:50.604Z,8.39
2018-11-02T04:43:50.427Z,8.35
2018-11-02T04:45:43.541Z,8.35
2018-11-02T04:46:43.039Z,8.35
2018-11-02T04:48:36.922Z,8.35
2018-11-02T04:49:36.729Z,8.35
2018-11-02T04:51:30.828Z,8.26
2018-11-02T04:52:30.654Z,8.34
2018-11-02T04:54:23.568Z,8.26
2018-11-02T04:55:23.156Z,8.26
2018-11-02T04:57:17.590Z,8.26
2018-11-02T04:58:16.915Z,8.19
2018-11-02T05:00:10.231Z,8.12
2018-11-02T05:01:09.853Z,8.19
2018-11-02T05:03:04.118Z,8.06
2018-11-02T05:04:03.593Z,8.04
2018-11-02T05:05:58.675Z,8.09
2018-11-02T05:06:57.971Z,8.05
2018-11-02T05:08:51.303Z,8.06
2018-11-02T05:09:50.901Z,8.05
2018-11-02T05:11:44.648Z,7.99
2018-11-02T05:12:44.575Z,7.92
2018-11-02T05:14:38.998Z,7.96
2018-11-02T05:15:39.140Z,7.96
2018-11-02T05:17:32.310Z,7.92
2018-11-02T05:18:32.515Z,7.83
2018-11-02T05:20:25.612Z,7.92
2018-11-02T05:21:25.345Z,7.87
2018-11-02T05:23:18.597Z,7.98
2018-11-02T05:24:19.050Z,7.94
2018-11-02T05:26:11.969Z,8.04
2018-11-02T05:27:11.521Z,7.98
2018-11-02T05:29:05.347Z,8.02
2018-11-02T05:30:05.294Z,8.09
2018-11-02T05:31:58.235Z,8.10
2018-11-02T05:32:58.227Z,8.12
2018-11-02T05:34:51.266Z,8.01
2018-11-02T05:35:51.915Z,8.13
2018-11-02T05:37:44.565Z,8.19
2018-11-02T05:38:44.126Z,8.19
2018-11-02T05:40:37.849Z,8.17
2018-11-02T05:41:37.463Z,8.02
2018-11-02T05:43:31.263Z,8.13
2018-11-02T05:44:30.799Z,8.04
2018-11-02T05:46:24.513Z,8.12
2018-11-02T05:47:24.338Z,8.01
2018-11-02T05:49:17.472Z,8.04
2018-11-02T05:50:17.086Z,7.92
2018-11-02T05:52:10.549Z,8.01
2018-11-02T05:53:10.160Z,7.94
2018-11-02T05:55:04.996Z,7.91
2018-11-02T05:56:03.472Z,7.83
2018-11-02T05:57:57.213Z,7.83
2018-11-02T05:58:57.185Z,7.80
2018-11-02T06:00:50.644Z,7.83
2018-11-02T06:01:50.564Z,7.71
2018-11-02T06:03:43.110Z,7.78
2018-11-02T06:04:43.042Z,7.83
2018-11-02T06:06:36.897Z,7.86
2018-11-02T06:07:36.783Z,7.86
2018-11-02T06:09:30.192Z,7.95
2018-11-02T06:10:29.749Z,7.91
2018-11-02T06:12:23.532Z,7.86
2018-11-02T06:13:23.173Z,7.94
2018-11-02T06:15:16.289Z,7.96
2018-11-02T06:16:16.100Z,7.88
2018-11-02T06:18:08.936Z,7.91
2018-11-02T06:19:09.279Z,7.99
2018-11-02T06:21:02.928Z,8.05
2018-11-02T06:22:02.302Z,8.02
2018-11-02T06:23:56.128Z,8.04
2018-11-02T06:24:55.660Z,8.04
2018-11-02T06:26:49.379Z,8.05
2018-11-02T06:27:48.988Z,8.17
2018-11-02T06:29:42.209Z,8.04
2018-11-02T06:30:42.253Z,8.05
2018-11-02T06:32:35.155Z,8.10
2018-11-02T06:33:34.691Z,8.04
2018-11-02T06:35:27.689Z,8.02
2018-11-02T06:36:27.757Z,8.01
2018-11-02T06:38:21.210Z,8.06
2018-11-02T06:39:20.924Z,8.05
2018-11-02T06:41:14.318Z,8.09
2018-11-02T06:42:14.243Z,8.10
2018-11-02T06:44:07.631Z,8.19
2018-11-02T06:45:07.771Z,8.02
2018-11-02T06:47:00.973Z,8.19
2018-11-02T06:48:01.119Z,8.16
2018-11-02T06:49:54.187Z,8.12
2018-11-02T06:50:53.874Z,8.12
2018-11-02T06:52:48.265Z,8.14
2018-11-02T06:53:47.219Z,8.13
2018-11-02T06:55:41.178Z,8.24
2018-11-02T06:56:40.575Z,8.14
2018-11-02T06:58:34.165Z,8.12
2018-11-02T06:59:34.309Z,8.13
2018-11-02T07:01:27.593Z,8.17
2018-11-02T07:02:27.263Z,8.14
2018-11-02T07:04:21.212Z,8.23
2018-11-02T07:05:20.625Z,8.21
2018-11-02T07:07:13.800Z,8.31
2018-11-02T07:08:13.769Z,8.31
2018-11-02T07:10:07.449Z,8.31
2018-11-02T07:11:07.228Z,8.35
2018-11-02T07:13:00.393Z,8.44
2018-11-02T07:14:00.974Z,8.49
2018-11-02T07:15:53.927Z,8.60
2018-11-02T07:16:53.736Z,8.72
2018-11-02T07:18:48.195Z,8.70
2018-11-02T07:19:48.080Z,8.80
2018-11-02T07:21:41.813Z,8.88
2018-11-02T07:22:40.986Z,8.92
2018-11-02T07:24:34.132Z,8.96
2018-11-02T07:25:33.851Z,9.01
2018-11-02T07:27:27.408Z,9.12
2018-11-02T07:28:27.137Z,9.19
2018-11-02T07:30:20.084Z,9.32
2018-11-02T07:31:20.006Z,9.41
2018-11-02T07:33:13.433Z,9.57
2018-11-02T07:34:13.380Z,9.55
2018-11-02T07:36:06.743Z,9.66
2018-11-02T07:37:06.699Z,9.78
2018-11-02T07:38:59.601Z,9.81
2018-11-02T07:39:59.579Z,9.85
2018-11-02T07:41:53.242Z,10.01
2018-11-02T07:42:52.917Z,10.06
2018-11-02T07:44:46.294Z,10.17
2018-11-02T07:45:46.250Z,10.30
2018-11-02T07:47:40.076Z,10.23
2018-11-02T07:48:39.408Z,10.31
2018-11-02T07:50:32.320Z,10.41
2018-11-02T07:51:32.290Z,10.46
2018-11-02T07:53:26.578Z,10.57
2018-11-02T07:54:25.674Z,10.52
2018-11-02T07:56:19.876Z,10.49
2018-11-02T07:57:18.990Z,10.65
2018-11-02T07:59:12.420Z,10.70
2018-11-02T08:00:12.395Z,10.72
2018-11-02T08:02:06.050Z,10.85
2018-11-02T08:03:05.729Z,11.00
2018-11-02T08:04:59.448Z,11.04
2018-11-02T08:05:59.484Z,11.09
2018-11-02T08:07:53.776Z,11.12
2018-11-02T08:08:52.548Z,11.22
2018-11-02T08:10:46.441Z,11.33
2018-11-02T08:11:45.823Z,11.37
2018-11-02T08:13:39.567Z,11.48
2018-11-02T08:14:39.220Z,11.43
2018-11-02T08:16:32.832Z,11.49
2018-11-02T08:17:32.566Z,11.52
2018-11-02T08:19:26.225Z,11.55
2018-11-02T08:20:26.171Z,11.58
2018-11-02T08:22:19.885Z,11.55
2018-11-02T08:23:19.639Z,11.61
2018-11-02T08:25:13.547Z,11.62
2018-11-02T08:26:13.163Z,11.62
2018-11-02T08:28:06.823Z,11.69
2018-11-02T08:29:06.513Z,11.76
2018-11-02T08:31:00.295Z,11.76
2018-11-02T08:32:00.250Z,11.76
2018-11-02T08:33:53.273Z,11.80
2018-11-02T08:34:53.580Z,11.80
2018-11-02T08:36:46.959Z,11.89
2018-11-02T08:37:46.560Z,11.84
2018-11-02T08:39:39.855Z,11.99
2018-11-02T08:40:39.813Z,11.97
2018-11-02T08:42:33.164Z,11.99
2018-11-02T08:43:32.803Z,11.96
2018-11-02T08:45:26.499Z,11.99
2018-11-02T08:46:26.220Z,12.05
2018-11-02T08:48:19.433Z,11.97
2018-11-02T08:49:19.430Z,11.85
2018-11-02T08:51:12.479Z,12.00
2018-11-02T08:52:12.457Z,11.96
2018-11-02T08:54:06.857Z,12.03
2018-11-02T08:55:06.781Z,11.91
2018-11-02T08:57:02.154Z,11.85
2018-11-02T08:58:00.303Z,11.87
2018-11-02T08:59:56.131Z,11.82
2018-11-02T09:00:53.532Z,11.88
2018-11-02T09:02:50.759Z,11.84
2018-11-02T09:03:48.349Z,11.89
2018-11-02T09:05:41.322Z,11.84
2018-11-02T09:06:40.699Z,11.84
2018-11-02T09:08:37.546Z,11.76
2018-11-02T09:09:34.733Z,11.80
2018-11-02T09:11:28.469Z,11.77
2018-11-02T09:12:27.542Z,11.71
2018-11-02T09:14:23.189Z,11.70
2018-11-02T09:15:20.491Z,11.69
2018-11-02T09:17:14.727Z,11.64
2018-11-02T09:18:15.498Z,11.67
2018-11-02T09:20:10.036Z,11.74
2018-11-02T09:21:08.329Z,11.74
2018-11-02T09:23:02.134Z,11.76
2018-11-02T09:24:02.266Z,11.85
2018-11-02T09:25:53.627Z,11.96
2018-11-02T09:26:53.598Z,12.07
2018-11-02T09:28:47.293Z,12.21
2018-11-02T09:29:46.942Z,12.30
2018-11-02T09:31:40.607Z,12.44
2018-11-02T09:32:40.299Z,12.47
2018-11-02T09:34:33.892Z,12.69
2018-11-02T09:35:33.623Z,12.79
2018-11-02T09:37:28.468Z,12.95
2018-11-02T09:38:27.351Z,13.04
2018-11-02T09:40:21.795Z,13.13
2018-11-02T09:41:21.661Z,13.09
2018-11-02T09:43:16.592Z,13.30
2018-11-02T09:44:16.128Z,13.20
2018-11-02T09:46:09.682Z,13.21
2018-11-02T09:47:09.268Z,13.36
2018-11-02T09:49:02.384Z,13.35
2018-11-02T09:50:02.150Z,13.38
2018-11-02T09:51:55.631Z,13.51
2018-11-02T09:52:55.301Z,13.51
2018-11-02T09:54:48.792Z,13.53
2018-11-02T09:55:49.215Z,13.54
2018-11-02T09:57:43.176Z,13.63
2018-11-02T09:58:44.602Z,13.60
2018-11-02T10:00:36.320Z,13.60
2018-11-02T10:01:35.351Z,13.54
2018-11-02T10:03:30.162Z,13.54
2018-11-02T10:04:29.324Z,13.61
2018-11-02T10:06:22.112Z,13.53
2018-11-02T10:07:21.763Z,13.45
2018-11-02T10:09:15.592Z,13.53
2018-11-02T10:10:15.086Z,13.47
2018-11-02T10:12:08.954Z,13.53
2018-11-02T10:13:08.876Z,13.57
2018-11-02T10:15:02.190Z,13.49
2018-11-02T10:16:01.864Z,13.51
2018-11-02T10:17:55.600Z,13.53
2018-11-02T10:18:55.599Z,13.61
2018-11-02T10:20:48.177Z,13.61
2018-11-02T10:21:48.417Z,13.65
2018-11-02T10:23:43.159Z,13.67
2018-11-02T10:24:42.375Z,13.73
2018-11-02T10:26:36.813Z,13.68
2018-11-02T10:27:36.391Z,13.71
2018-11-02T10:29:30.214Z,13.75
2018-11-02T10:30:29.739Z,13.67
2018-11-02T10:32:23.548Z,13.68
2018-11-02T10:33:23.475Z,13.76
2018-11-02T10:35:16.347Z,13.78
2018-11-02T10:36:16.331Z,13.68
2018-11-02T10:38:09.756Z,13.64
2018-11-02T10:39:09.342Z,13.63
2018-11-02T10:41:04.081Z,13.54
2018-11-02T10:42:02.722Z,13.55
2018-11-02T10:43:56.317Z,13.54
2018-11-02T10:44:56.035Z,13.47
2018-11-02T10:46:49.392Z,13.54
2018-11-02T10:47:49.861Z,13.51
2018-11-02T10:49:42.506Z,13.40
2018-11-02T10:50:42.459Z,13.45
2018-11-02T10:52:35.470Z,13.53
2018-11-02T10:53:35.409Z,13.51
2018-11-02T10:55:28.695Z,13.51
2018-11-02T10:56:28.445Z,13.55
2018-11-02T10:58:22.038Z,13.54
2018-11-02T10:59:21.763Z,13.47
2018-11-02T11:01:17.460Z,13.61
2018-11-02T11:02:16.485Z,13.61
2018-11-02T11:04:12.392Z,13.64
2018-11-02T11:05:10.825Z,13.63
2018-11-02T11:07:07.258Z,13.65
2018-11-02T11:08:06.685Z,13.71
2018-11-02T11:10:01.155Z,13.58
2018-11-02T11:11:00.287Z,13.57
2018-11-02T11:12:53.204Z,13.64
2018-11-02T11:13:52.905Z,13.72
2018-11-02T11:15:46.684Z,13.75
2018-11-02T11:16:46.301Z,13.73
2018-11-02T11:18:39.714Z,13.73
2018-11-02T11:19:39.662Z,13.79
2018-11-02T11:21:34.147Z,13.67
2018-11-02T11:22:34.648Z,13.68
2018-11-02T11:24:27.369Z,13.51
2018-11-02T11:25:27.333Z,13.58
2018-11-02T11:27:20.787Z,13.47
2018-11-02T11:28:20.694Z,13.55
2018-11-02T11:30:14.701Z,13.61
2018-11-02T11:31:14.152Z,13.65
2018-11-02T11:33:07.525Z,13.78
2018-11-02T11:34:07.131Z,13.72
2018-11-02T11:36:00.941Z,13.68
2018-11-02T11:37:00.504Z,13.63
2018-11-02T11:38:53.933Z,13.73
2018-11-02T11:39:53.887Z,13.72
2018-11-02T11:41:47.110Z,13.79
2018-11-02T11:42:47.094Z,13.79
2018-11-02T11:44:40.172Z,13.79
2018-11-02T11:45:40.146Z,13.83
2018-11-02T11:47:34.939Z,13.82
2018-11-02T11:48:33.975Z,13.79
2018-11-02T11:50:27.369Z,13.80
2018-11-02T11:51:26.968Z,13.75
2018-11-02T11:53:20.655Z,13.61
2018-11-02T11:54:20.336Z,13.53
2018-11-02T11:56:13.880Z,13.55
2018-11-02T11:57:13.524Z,13.64
2018-11-02T11:59:07.892Z,13.72
2018-11-02T12:00:07.213Z,13.60
2018-11-02T12:02:00.628Z,13.63
2018-11-02T12:03:00.854Z,13.58
2018-11-02T12:04:54.078Z,13.61
2018-11-02T12:05:54.034Z,13.71
2018-11-02T12:07:46.999Z,13.72
2018-11-02T12:08:47.541Z,13.73
2018-11-02T12:10:40.666Z,13.58
2018-11-02T12:11:40.389Z,13.61
2018-11-02T12:13:34.170Z,13.40
2018-11-02T12:14:33.822Z,13.38
2018-11-02T12:16:26.499Z,13.30
2018-11-02T12:17:27.464Z,13.32
2018-11-02T12:19:19.965Z,13.39
2018-11-02T12:20:19.486Z,13.38
2018-11-02T12:22:12.828Z,13.30
2018-11-02T12:23:12.772Z,13.24
2018-11-02T12:25:07.453Z,13.32
2018-11-02T12:26:07.173Z,13.35
2018-11-02T12:28:00.355Z,13.36
2018-11-02T12:29:00.580Z,13.32
2018-11-02T12:30:53.782Z,13.46
2018-11-02T12:31:53.378Z,13.46
2018-11-02T12:33:47.195Z,13.45
2018-11-02T12:34:46.755Z,13.51
2018-11-02T12:36:40.456Z,13.46
2018-11-02T12:37:41.020Z,13.46
2018-11-02T12:39:34.609Z,13.55
2018-11-02T12:40:33.024Z,13.51
2018-11-02T12:42:27.364Z,13.45
2018-11-02T12:43:26.515Z,13.46
2018-11-02T12:45:19.604Z,13.46
2018-11-02T12:46:19.220Z,13.46
2018-11-02T12:48:13.496Z,13.43
2018-11-02T12:49:13.052Z,13.53
2018-11-02T12:51:05.980Z,13.46
2018-11-02T12:52:05.970Z,13.49
2018-11-02T12:53:59.442Z,13.46
2018-11-02T12:54:59.345Z,13.38
2018-11-02T12:56:52.986Z,13.30
2018-11-02T12:57:53.257Z,13.38
2018-11-02T12:59:46.160Z,13.14
2018-11-02T13:00:46.069Z,13.05
2018-11-02T13:02:39.815Z,12.99
2018-11-02T13:03:39.497Z,12.96
2018-11-02T13:05:33.603Z,12.98
2018-11-02T13:06:32.902Z,13.01
2018-11-02T13:08:26.056Z,13.06
2018-11-02T13:09:26.066Z,13.09
2018-11-02T13:11:19.159Z,13.19
2018-11-02T13:12:19.073Z,13.26
2018-11-02T13:14:12.492Z,13.24
2018-11-02T13:15:12.439Z,13.20
2018-11-02T13:17:06.218Z,13.17
2018-11-02T13:18:05.822Z,13.20
2018-11-02T13:19:59.598Z,13.26
2018-11-02T13:20:59.236Z,13.20
2018-11-02T13:22:53.037Z,13.14
2018-11-02T13:23:52.527Z,13.11
2018-11-02T13:25:46.290Z,13.05
2018-11-02T13:26:45.868Z,13.06
2018-11-02T13:28:39.363Z,12.99
2018-11-02T13:29:38.786Z,13.05
2018-11-02T13:31:32.203Z,13.08
2018-11-02T13:32:32.197Z,12.98
2018-11-02T13:34:25.447Z,13.05
2018-11-02T13:35:25.374Z,12.95
2018-11-02T13:37:18.368Z,13.01
2018-11-02T13:38:17.898Z,12.98
2018-11-02T13:40:11.709Z,12.96
2018-11-02T13:41:11.245Z,12.98
2018-11-02T13:43:05.097Z,13.05
2018-11-02T13:44:04.628Z,13.02
2018-11-02T13:45:58.363Z,13.04
2018-11-02T13:46:57.989Z,13.02
2018-11-02T13:48:51.701Z,13.09
2018-11-02T13:49:51.327Z,13.08
2018-11-02T13:51:44.220Z,13.13
2018-11-02T13:52:44.203Z,13.08
2018-11-02T13:54:37.631Z,13.11
2018-11-02T13:55:37.562Z,13.09
2018-11-02T13:57:30.937Z,13.16
2018-11-02T13:58:30.917Z,13.05
2018-11-02T14:00:24.500Z,13.04
2018-11-02T14:01:24.304Z,12.99
2018-11-02T14:03:17.161Z,12.95
2018-11-02T14:04:17.148Z,13.04
2018-11-02T14:06:10.562Z,12.99
2018-11-02T14:07:10.535Z,12.96
2018-11-02T14:09:03.955Z,12.90
2018-11-02T14:10:04.439Z,12.87
2018-11-02T14:11:57.589Z,12.93
2018-11-02T14:12:57.336Z,12.84
2018-11-02T14:14:50.655Z,12.73
2018-11-02T14:15:50.656Z,12.77
2018-11-02T14:17:43.644Z,12.81
2018-11-02T14:18:43.525Z,12.79
2018-11-02T14:20:37.207Z,12.83
2018-11-02T14:21:37.433Z,12.83
2018-11-02T14:23:30.623Z,12.80
2018-11-02T14:24:30.681Z,12.76
2018-11-02T14:26:24.669Z,12.79
2018-11-02T14:27:23.466Z,12.77
2018-11-02T14:29:17.261Z,12.77
2018-11-02T14:30:17.173Z,12.73
2018-11-02T14:32:10.513Z,12.72
2018-11-02T14:33:10.125Z,12.73
2018-11-02T14:35:03.431Z,12.66
2018-11-02T14:36:03.344Z,12.66
2018-11-02T14:37:57.870Z,12.66
2018-11-02T14:38:57.408Z,12.71
2018-11-02T14:41:00.186Z,12.62
2018-11-02T14:41:51.320Z,12.65
2018-11-02T14:43:44.695Z,12.53
2018-11-02T14:44:45.188Z,12.51
2018-11-02T14:46:38.568Z,12.54
2018-11-02T14:47:38.074Z,12.53
2018-11-02T14:49:32.897Z,12.58
2018-11-02T14:50:31.422Z,12.47
2018-11-02T14:52:26.710Z,12.46
2018-11-02T14:53:26.154Z,12.43
2018-11-02T14:55:19.524Z,12.46
2018-11-02T14:56:19.117Z,12.44
2018-11-02T14:58:13.579Z,12.43
2018-11-02T14:59:14.350Z,12.48
2018-11-02T15:01:07.188Z,12.35
2018-11-02T15:02:06.873Z,12.36
2018-11-02T15:04:00.661Z,12.33
2018-11-02T15:05:00.166Z,12.29
2018-11-02T15:06:53.974Z,12.30
2018-11-02T15:07:53.608Z,12.25
2018-11-02T15:09:46.898Z,12.28
2018-11-02T15:10:46.756Z,12.25
2018-11-02T15:12:40.697Z,12.25
2018-11-02T15:13:39.837Z,12.17
2018-11-02T15:15:34.649Z,12.11
2018-11-02T15:16:33.465Z,12.11
2018-11-02T15:18:28.421Z,12.04
2018-11-02T15:19:27.520Z,12.05
2018-11-02T15:21:20.937Z,12.03
2018-11-02T15:22:21.429Z,12.05
2018-11-02T15:24:14.728Z,11.97
2018-11-02T15:25:14.199Z,12.00
2018-11-02T15:27:07.723Z,12.00
2018-11-02T15:28:07.935Z,11.89
2018-11-02T15:30:00.531Z,11.79
2018-11-02T15:31:01.014Z,11.85
2018-11-02T15:32:54.803Z,11.87
2018-11-02T15:33:54.184Z,11.79
2018-11-02T15:35:47.672Z,11.88
2018-11-02T15:36:47.616Z,11.73
2018-11-02T15:38:40.964Z,11.66
2018-11-02T15:39:40.967Z,11.69
2018-11-02T15:41:34.290Z,11.61
2018-11-02T15:42:34.270Z,11.62
2018-11-02T15:44:27.732Z,11.58
2018-11-02T15:45:27.280Z,11.70
2018-11-02T15:47:24.031Z,11.51
2018-11-02T15:48:20.709Z,11.49
2018-11-02T15:50:14.820Z,11.52
2018-11-02T15:51:13.960Z,11.49
2018-11-02T15:53:08.010Z,11.43
2018-11-02T15:54:08.195Z,11.43
2018-11-02T15:56:01.174Z,11.45
2018-11-02T15:57:01.153Z,11.38
2018-11-02T15:58:55.563Z,11.30
2018-11-02T15:59:55.161Z,11.33
2018-11-02T16:01:48.449Z,11.34
2018-11-02T16:02:47.982Z,11.25
2018-11-02T16:04:41.453Z,11.27
2018-11-02T16:05:40.870Z,11.23
2018-11-02T16:07:34.256Z,11.13
2018-11-02T16:08:34.190Z,11.25
2018-11-02T16:10:27.921Z,11.16
2018-11-02T16:11:27.549Z,11.19
2018-11-02T16:13:21.406Z,11.19
2018-11-02T16:14:21.971Z,11.12
2018-11-02T16:16:14.725Z,11.09
2018-11-02T16:17:15.109Z,11.11
2018-11-02T16:19:08.128Z,11.09
2018-11-02T16:20:08.103Z,11.09
2018-11-02T16:22:01.405Z,11.04
2018-11-02T16:23:01.440Z,10.93
2018-11-02T16:24:55.732Z,10.85
2018-11-02T16:25:55.283Z,10.72
2018-11-02T16:27:51.149Z,10.70
2018-11-02T16:28:50.166Z,10.73
2018-11-02T16:30:43.611Z,10.75
2018-11-02T16:31:43.366Z,10.65
2018-11-02T16:33:37.058Z,10.64
2018-11-02T16:34:36.466Z,10.54
2018-11-02T16:36:30.041Z,10.64
2018-11-02T16:37:30.063Z,10.62
2018-11-02T16:39:23.504Z,10.52
2018-11-02T16:40:23.110Z,10.46
2018-11-02T16:42:23.417Z,10.55
2018-11-02T16:43:17.327Z,10.49
2018-11-02T16:45:15.236Z,10.48
2018-11-02T16:46:12.753Z,10.46
2018-11-02T16:48:07.228Z,10.39
2018-11-02T16:49:05.637Z,10.43
2018-11-02T16:50:59.428Z,10.30
2018-11-02T16:51:58.973Z,10.24
2018-11-02T16:53:52.067Z,10.21
2018-11-02T16:54:51.645Z,10.17
2018-11-02T16:56:45.495Z,10.03
2018-11-02T16:57:45.597Z,10.08
2018-11-02T16:59:41.010Z,9.98
2018-11-02T17:00:38.321Z,9.94
2018-11-02T17:02:32.174Z,9.83
2018-11-02T17:03:32.114Z,9.81
2018-11-02T17:05:27.059Z,9.77
2018-11-02T17:06:25.418Z,9.72
2018-11-02T17:08:20.390Z,9.72
2018-11-02T17:09:19.777Z,9.67
2018-11-02T17:11:13.138Z,9.72
2018-11-02T17:12:12.816Z,9.62
2018-11-02T17:14:06.527Z,9.62
2018-11-02T17:15:05.790Z,9.59
2018-11-02T17:16:58.847Z,9.60
2018-11-02T17:17:59.144Z,9.62
2018-11-02T17:19:52.033Z,9.47
2018-11-02T17:20:51.923Z,9.41
2018-11-02T17:22:45.627Z,9.36
2018-11-02T17:23:45.276Z,9.37
2018-11-02T17:25:40.107Z,9.32
2018-11-02T17:26:39.230Z,9.32
2018-11-02T17:28:31.814Z,9.29
2018-11-02T17:29:31.478Z,9.29
2018-11-02T17:31:25.468Z,9.33
2018-11-02T17:32:25.236Z,9.30
2018-11-02T17:34:19.753Z,9.44
2018-11-02T17:35:18.774Z,9.41
2018-11-02T17:37:12.522Z,9.48
2018-11-02T17:38:12.192Z,9.41
2018-11-02T17:40:05.847Z,9.48
2018-11-02T17:41:05.451Z,9.48
2018-11-02T17:42:58.846Z,9.52
2018-11-02T17:43:58.807Z,9.51
2018-11-02T17:45:53.605Z,9.63
2018-11-02T17:46:52.518Z,9.50
2018-11-02T17:48:46.940Z,9.47
2018-11-02T17:49:45.538Z,9.48
2018-11-02T17:51:38.483Z,9.54
2018-11-02T17:52:38.962Z,9.54
2018-11-02T17:54:32.032Z,9.52
2018-11-02T17:55:31.771Z,9.48
2018-11-02T17:57:26.595Z,9.37
2018-11-02T17:58:26.526Z,9.47
2018-11-02T18:00:21.026Z,9.32
2018-11-02T18:01:20.514Z,9.30
2018-11-02T18:03:13.831Z,9.16
2018-11-02T18:04:14.490Z,9.22
2018-11-02T18:06:06.778Z,9.18
2018-11-02T18:07:06.657Z,9.08
2018-11-02T18:09:01.105Z,9.09
2018-11-02T18:10:00.591Z,9.03
2018-11-02T18:11:53.510Z,9.01
2018-11-02T18:12:53.362Z,8.99
2018-11-02T18:14:46.772Z,9.03
2018-11-02T18:15:46.711Z,8.90
2018-11-02T18:17:40.107Z,8.98
2018-11-02T18:18:40.101Z,8.92
2018-11-02T18:20:32.949Z,8.86
2018-11-02T18:21:32.921Z,8.78
2018-11-02T18:23:25.811Z,8.85
2018-11-02T18:24:25.867Z,8.83
2018-11-02T18:26:19.187Z,8.89
2018-11-02T18:27:19.140Z,8.77
2018-11-02T18:29:12.511Z,8.93
2018-11-02T18:30:12.486Z,8.93
2018-11-02T18:32:05.359Z,8.81
2018-11-02T18:33:05.378Z,8.83
2018-11-02T18:34:59.872Z,9.01
2018-11-02T18:35:59.703Z,8.98
2018-11-02T18:37:52.577Z,8.99
2018-11-02T18:38:52.537Z,8.95
2018-11-02T18:40:45.941Z,8.93
2018-11-02T18:41:45.894Z,9.01
2018-11-02T18:43:39.278Z,8.80
2018-11-02T18:44:39.243Z,8.88
2018-11-02T18:46:32.616Z,8.86
2018-11-02T18:47:32.634Z,8.72